Melina — D5NG4 — position and weather

sailwx.info

Track history (hours):
 
Tides and Currents Weather Stations Pressure Air Temp Water Temp Dewpoint Dewpoint Depression Visibility Wind Speed Wind Dir Waves Ship Positions

Melina

Last reported at 2017-Dec-29 00:41 UTC. Time now 2018-Feb-17 23:18 UTC.
Position N 28°10' W 016°10'.
Warning: this ship's position is 50 days out of date.

Length 170 m; draft 9.8 m.

Type: Cargo ship. MMSI: 636017902.

Date/timePositionNaut miles runAvg speedWind from/ knotsBaromVisibWave heightAir tempDewpointWater temp
2017-Dec-29 00:41N 28°10' W 016°10'212.5
2017-Dec-29 00:30N 28°12' W 016°09'812.6
2017-Dec-28 23:54N 28°18' W 016°03'512.3
2017-Dec-28 23:30N 28°22' W 015°60'611.8
2017-Dec-28 23:00N 28°26' W 015°55'611.9
2017-Dec-28 22:30N 28°31' W 015°51'612.1
2017-Dec-28 22:00N 28°36' W 015°47'612.1
2017-Dec-28 21:30N 28°41' W 015°44'612.0
2017-Dec-28 21:00N 28°47' W 015°42'611.9
2017-Dec-28 20:30N 28°53' W 015°39'612.1
2017-Dec-28 20:00N 28°58' W 015°37'912.1
2017-Dec-28 19:17N 29°07' W 015°34'412.1
2017-Dec-28 18:59N 29°10' W 015°33'4212.0
2017-Dec-28 15:30N 29°50' W 015°18'  
2017-Dec-24 08:20N 48°24' W 006°11'411.5
2017-Dec-24 07:59N 48°27' W 006°08'811.4
2017-Dec-24 07:15N 48°35' W 006°02'1810.9
2017-Dec-24 05:39N 48°50' W 005°50'210.9
2017-Dec-24 05:26N 48°52' W 005°48'510.6
2017-Dec-24 04:59N 48°56' W 005°43'611.1
2017-Dec-24 04:28N 48°59' W 005°35'811.5
2017-Dec-24 03:49N 49°02' W 005°25'411.8
2017-Dec-24 03:28N 49°05' W 005°20'712.1
2017-Dec-24 02:51N 49°09' W 005°11'712.5
2017-Dec-24 02:18N 49°12' W 005°02'612.7
2017-Dec-24 01:52N 49°15' W 004°54'612.8
2017-Dec-24 01:25N 49°18' W 004°47'612.8
2017-Dec-24 00:56N 49°21' W 004°38'712.7
2017-Dec-24 00:23N 49°24' W 004°29'2612.0
2017-Dec-23 22:12N 49°37' W 003°54'211.3
2017-Dec-23 22:00N 49°38' W 003°51'611.0
2017-Dec-23 21:29N 49°41' W 003°43'510.9
2017-Dec-23 21:00N 49°44' W 003°36'510.8
2017-Dec-23 20:30N 49°47' W 003°29'510.9
2017-Dec-23 20:00N 49°50' W 003°22'611.1
2017-Dec-23 19:30N 49°52' W 003°14'611.5
2017-Dec-23 19:00N 49°55' W 003°07'611.9
2017-Dec-23 18:30N 49°58' W 002°59'612.5
2017-Dec-23 18:00N 50°00' W 002°49'713.2
2017-Dec-23 17:30N 50°02' W 002°40'1114.1
2017-Dec-23 16:44N 50°05' W 002°23'1214.4
2017-Dec-23 15:54N 50°08' W 002°05'914.0
2017-Dec-23 15:16N 50°11' W 001°52'1213.0
2017-Dec-23 14:20N 50°14' W 001°33'512.1
2017-Dec-23 13:54N 50°15' W 001°25'511.4
2017-Dec-23 13:30N 50°16' W 001°19'510.7
2017-Dec-23 12:59N 50°17' W 001°10'510.1
2017-Dec-23 12:29N 50°19' W 001°03'6 9.6
2017-Dec-23 11:55N 50°20' W 000°54'20 9.4
2017-Dec-23 09:51N 50°25' W 000°25'410.5
2017-Dec-23 09:31N 50°26' W 000°19'611.1
2017-Dec-23 09:01N 50°28' W 000°11'611.7
2017-Dec-23 08:30N 50°29' W 000°02'612.4
2017-Dec-23 08:01N 50°31' E 000°07'612.8
2017-Dec-23 07:30N 50°33' E 000°17'713.2
2017-Dec-23 07:01N 50°34' E 000°27'713.1
2017-Dec-23 06:31N 50°37' E 000°36'713.0
2017-Dec-23 06:01N 50°41' E 000°45'612.7
2017-Dec-23 05:30N 50°44' E 000°53'612.3
2017-Dec-23 05:01N 50°47' E 001°02'612.0
2017-Dec-23 04:29N 50°51' E 001°10'811.3
2017-Dec-23 03:49N 50°56' E 001°19'310.6
2017-Dec-23 03:30N 50°58' E 001°22'510.3
2017-Dec-23 03:01N 51°02' E 001°27'510.6
2017-Dec-23 02:31N 51°06' E 001°33'510.6
2017-Dec-23 02:01N 51°10' E 001°40'611.1
2017-Dec-23 01:31N 51°14' E 001°46'612.0
2017-Dec-23 01:01N 51°19' E 001°51'612.7
2017-Dec-23 00:31N 51°24' E 001°57'611.7
2017-Dec-23 00:00N 51°23' E 002°06'612.6
2017-Dec-22 23:30N 51°21' E 002°16'713.6
2017-Dec-22 23:00N 51°22' E 002°26'713.4
2017-Dec-22 22:30N 51°23' E 002°37'612.3
2017-Dec-22 22:00N 51°22' E 002°47'613.3
2017-Dec-22 21:30N 51°23' E 002°57'612.6
2017-Dec-22 21:00N 51°24' E 003°07'714.0
2017-Dec-22 20:30N 51°25' E 003°18'714.2
2017-Dec-22 20:00N 51°25' E 003°30'510.5
2017-Dec-22 19:30N 51°26' E 003°38'510.6
2017-Dec-22 19:01N 51°23' E 003°44'4 8.7
2017-Dec-22 18:30N 51°20' E 003°49'0 0.4
2017-Dec-22 18:01N 51°20' E 003°49'1 2.1
2017-Dec-22 17:31N 51°19' E 003°50'2 4.4
2017-Dec-22 17:00N 51°16' E 003°50'3 6.3
2017-Dec-22 16:30N 51°14' E 003°48'3 6.4
2017-Dec-22 16:00N 51°10' E 003°48'3 7.0
2017-Dec-22 15:30N 51°07' E 003°45'2 4.0
2017-Dec-22 15:00N 51°05' E 003°44'0 0.0
2017-Dec-22 14:30N 51°05' E 003°44'0 0.0
2017-Dec-22 14:00N 51°05' E 003°44'0 0.0
2017-Dec-22 13:30N 51°05' E 003°44'0 0.0
2017-Dec-22 13:00N 51°05' E 003°44'0 0.0
2017-Dec-22 12:30N 51°05' E 003°44'0 0.0
2017-Dec-22 12:00N 51°05' E 003°44'0 0.0
2017-Dec-22 11:30N 51°05' E 003°44'0 0.0
2017-Dec-22 11:00N 51°05' E 003°44'0 0.0
2017-Dec-22 10:30N 51°05' E 003°44'0 0.0
2017-Dec-22 10:00N 51°05' E 003°44'0 0.0
2017-Dec-22 09:30N 51°05' E 003°44'0 0.0
2017-Dec-22 09:01N 51°05' E 003°44'0 0.0
2017-Dec-22 08:31N 51°05' E 003°44'0 0.0
2017-Dec-22 08:00N 51°05' E 003°44'0 0.0
2017-Dec-22 07:31N 51°05' E 003°44'0 0.0
2017-Dec-22 07:00N 51°05' E 003°44'0 0.0
2017-Dec-22 06:31N 51°05' E 003°44'0 0.0
2017-Dec-22 06:00N 51°05' E 003°44'0 0.0
2017-Dec-22 05:31N 51°05' E 003°44'0 0.0
2017-Dec-22 05:00N 51°05' E 003°44'0 0.0
2017-Dec-22 04:30N 51°05' E 003°44'0 0.0
2017-Dec-22 04:00N 51°05' E 003°44'0 0.0
2017-Dec-22 03:30N 51°05' E 003°44'0 0.0
2017-Dec-22 03:01N 51°05' E 003°44'0 0.0
2017-Dec-22 02:30N 51°05' E 003°44'0 0.0
2017-Dec-22 02:00N 51°05' E 003°44'0 0.0
2017-Dec-22 01:30N 51°05' E 003°44'0 0.0
2017-Dec-22 01:01N 51°05' E 003°44'0 0.0
2017-Dec-22 00:30N 51°05' E 003°44'0 0.0
2017-Dec-22 00:00N 51°05' E 003°44'0 0.0
2017-Dec-21 23:30N 51°05' E 003°44'0 0.0
2017-Dec-21 23:01N 51°05' E 003°44'0 0.0
2017-Dec-21 22:30N 51°05' E 003°44'0 0.0
2017-Dec-21 22:01N 51°05' E 003°44'0 0.0
2017-Dec-21 21:30N 51°05' E 003°44'0 0.0
2017-Dec-21 21:00N 51°05' E 003°44'0 0.0
2017-Dec-21 20:31N 51°05' E 003°44'0 0.0
2017-Dec-21 20:00N 51°05' E 003°44'0 0.0
2017-Dec-21 19:30N 51°05' E 003°44'0 0.0
2017-Dec-21 19:00N 51°05' E 003°44'0 0.0
2017-Dec-21 18:30N 51°05' E 003°44'0 0.0
2017-Dec-21 18:00N 51°05' E 003°44'0 0.0
2017-Dec-21 17:30N 51°05' E 003°44'0 0.0
2017-Dec-21 17:00N 51°05' E 003°44'0 0.0
2017-Dec-21 16:30N 51°05' E 003°44'0 0.0
2017-Dec-21 16:00N 51°05' E 003°44'0 0.0
2017-Dec-21 15:30N 51°05' E 003°44'0 0.0
2017-Dec-21 15:00N 51°05' E 003°44'0 0.0
2017-Dec-21 14:30N 51°05' E 003°44'0 0.0
2017-Dec-21 14:00N 51°05' E 003°44'0 0.0
2017-Dec-21 13:30N 51°05' E 003°44'0 0.0
2017-Dec-21 13:00N 51°05' E 003°44'0 0.0
2017-Dec-21 12:30N 51°05' E 003°44'0 0.0
2017-Dec-21 12:00N 51°05' E 003°44'0 0.0
2017-Dec-21 11:31N 51°05' E 003°44'0 0.0
2017-Dec-21 11:00N 51°05' E 003°44'0 0.0
2017-Dec-21 10:30N 51°05' E 003°44'0 0.0
2017-Dec-21 10:01N 51°05' E 003°44'0 0.0
2017-Dec-21 09:30N 51°05' E 003°44'0 0.0
2017-Dec-21 09:00N 51°05' E 003°44'0 0.0
2017-Dec-21 08:30N 51°05' E 003°44'0 0.0
2017-Dec-21 08:00N 51°05' E 003°44'0 0.0
2017-Dec-21 07:30N 51°05' E 003°44'0 0.0
2017-Dec-21 07:00N 51°05' E 003°44'0 0.0
2017-Dec-21 06:30N 51°05' E 003°44'0 0.0
2017-Dec-21 06:01N 51°05' E 003°44'0 0.0
2017-Dec-21 05:30N 51°05' E 003°44'0 0.0
2017-Dec-21 05:00N 51°05' E 003°44'0 0.0
2017-Dec-21 04:29N 51°05' E 003°44'0 0.0
2017-Dec-21 04:00N 51°05' E 003°44'0 0.0
2017-Dec-21 03:31N 51°05' E 003°44'0 0.0
2017-Dec-21 03:00N 51°05' E 003°44'0 0.0
2017-Dec-21 02:31N 51°05' E 003°44'0 0.0
2017-Dec-21 02:00N 51°05' E 003°44'0 0.0
2017-Dec-21 01:30N 51°05' E 003°44'0 0.0
2017-Dec-21 01:00N 51°05' E 003°44'0 0.0
2017-Dec-21 00:30N 51°05' E 003°44'0 0.0
2017-Dec-21 00:00N 51°05' E 003°44'0 0.0
2017-Dec-20 23:30N 51°05' E 003°44'0 0.0
2017-Dec-20 23:00N 51°05' E 003°44'0 0.0
2017-Dec-20 22:31N 51°05' E 003°44'0 0.0
2017-Dec-20 22:00N 51°05' E 003°44'0 0.0
2017-Dec-20 21:31N 51°05' E 003°44'0 0.0
2017-Dec-20 21:01N 51°05' E 003°44'0 0.0
2017-Dec-20 20:31N 51°05' E 003°44'0 0.0
2017-Dec-20 20:00N 51°05' E 003°44'0 0.0
2017-Dec-20 19:30N 51°05' E 003°44'0 0.0
2017-Dec-20 19:00N 51°05' E 003°44'0 0.0
2017-Dec-20 18:30N 51°05' E 003°44'0 0.0
2017-Dec-20 18:00N 51°05' E 003°44'0 0.0
2017-Dec-20 17:30N 51°05' E 003°44'0 0.0
2017-Dec-20 17:00N 51°05' E 003°44'0 0.0
2017-Dec-20 16:30N 51°05' E 003°44'0 0.0
2017-Dec-20 16:01N 51°05' E 003°44'0 0.0
2017-Dec-20 15:30N 51°05' E 003°44'0 0.0
2017-Dec-20 15:00N 51°05' E 003°44'0 0.0
2017-Dec-20 14:30N 51°05' E 003°44'0 0.0
2017-Dec-20 14:01N 51°05' E 003°44'0 0.0
2017-Dec-20 13:31N 51°05' E 003°44'0 0.0
2017-Dec-20 13:01N 51°05' E 003°44'0 0.0
2017-Dec-20 12:30N 51°05' E 003°44'0 0.0
2017-Dec-20 12:01N 51°05' E 003°44'0 0.0
2017-Dec-20 11:30N 51°05' E 003°44'0 0.0
2017-Dec-20 11:00N 51°05' E 003°44'0 0.0
2017-Dec-20 10:30N 51°05' E 003°44'0 0.0
2017-Dec-20 10:00N 51°05' E 003°44'0 0.0
2017-Dec-20 09:30N 51°05' E 003°44'0 0.0
2017-Dec-20 09:00N 51°05' E 003°44'0 0.0
2017-Dec-20 08:31N 51°05' E 003°44'0 0.0
2017-Dec-20 08:00N 51°05' E 003°44'0 0.0
2017-Dec-20 07:31N 51°05' E 003°44'0 0.0
2017-Dec-20 07:00N 51°05' E 003°44'0 0.0
2017-Dec-20 06:30N 51°05' E 003°44'0 0.0
2017-Dec-20 06:00N 51°05' E 003°44'0 0.0
2017-Dec-20 05:30N 51°05' E 003°44'0 0.0
2017-Dec-20 05:01N 51°05' E 003°44'0 0.0
2017-Dec-20 04:30N 51°05' E 003°44'0 0.0
2017-Dec-20 04:00N 51°05' E 003°44'0 0.0
2017-Dec-20 03:30N 51°05' E 003°44'0 0.0
2017-Dec-20 03:00N 51°05' E 003°44'0 0.0
2017-Dec-20 02:31N 51°05' E 003°44'0 0.0
2017-Dec-20 02:00N 51°05' E 003°44'0 0.0
2017-Dec-20 01:30N 51°05' E 003°44'0 0.0
2017-Dec-20 01:01N 51°05' E 003°44'0 0.0
2017-Dec-20 00:30N 51°05' E 003°44'0 0.0
2017-Dec-20 00:00N 51°05' E 003°44'0 0.0
2017-Dec-19 23:30N 51°05' E 003°44'0 0.0
2017-Dec-19 22:59N 51°05' E 003°44'0 0.0
2017-Dec-19 22:30N 51°05' E 003°44'0 0.0
2017-Dec-19 22:00N 51°05' E 003°44'0 0.0
2017-Dec-19 21:30N 51°05' E 003°44'0 0.0
2017-Dec-19 21:00N 51°05' E 003°44'0 0.0
2017-Dec-19 20:30N 51°05' E 003°44'0 0.0
2017-Dec-19 20:01N 51°05' E 003°44'0 0.0
2017-Dec-19 19:31N 51°05' E 003°44'0 0.0
2017-Dec-19 19:00N 51°05' E 003°44'0 0.0
2017-Dec-19 18:30N 51°05' E 003°44'0 0.0
2017-Dec-19 18:00N 51°05' E 003°44'0 0.0
2017-Dec-19 17:30N 51°05' E 003°44'0 0.0
2017-Dec-19 17:00N 51°05' E 003°44'0 0.0
2017-Dec-19 16:30N 51°05' E 003°44'0 0.0
2017-Dec-19 16:01N 51°05' E 003°44'0 0.0
2017-Dec-19 15:31N 51°05' E 003°44'0 0.0
2017-Dec-19 15:00N 51°05' E 003°44'0 0.0
2017-Dec-19 14:30N 51°05' E 003°44'0 0.0
2017-Dec-19 14:00N 51°05' E 003°44'0 0.0
2017-Dec-19 13:30N 51°05' E 003°44'0 0.0
2017-Dec-19 13:00N 51°05' E 003°44'0 0.0
2017-Dec-19 12:30N 51°05' E 003°44'0 0.0
2017-Dec-19 12:00N 51°05' E 003°44'0 0.0
2017-Dec-19 11:30N 51°05' E 003°44'0 0.0
2017-Dec-19 11:01N 51°05' E 003°44'0 0.0
2017-Dec-19 10:30N 51°05' E 003°44'0 0.0
2017-Dec-19 10:00N 51°05' E 003°44'0 0.0
2017-Dec-19 09:31N 51°05' E 003°44'0 0.0
2017-Dec-19 09:00N 51°05' E 003°44'0 0.0
2017-Dec-19 08:30N 51°05' E 003°44'0 0.0
2017-Dec-19 08:01N 51°05' E 003°44'0 0.0
2017-Dec-19 07:31N 51°05' E 003°44'0 0.0
2017-Dec-19 07:00N 51°05' E 003°44'0 0.0
2017-Dec-19 06:30N 51°05' E 003°44'0 0.0
2017-Dec-19 06:01N 51°05' E 003°44'0 0.0
2017-Dec-19 05:31N 51°05' E 003°44'0 0.0
2017-Dec-19 05:00N 51°05' E 003°44'0 0.0
2017-Dec-19 04:30N 51°05' E 003°44'0 0.0
2017-Dec-19 04:01N 51°05' E 003°44'0 0.0
2017-Dec-19 03:31N 51°05' E 003°44'0 0.0
2017-Dec-19 03:01N 51°05' E 003°44'0 0.0
2017-Dec-19 02:30N 51°05' E 003°44'0 0.0
2017-Dec-19 02:01N 51°05' E 003°44'0 0.0
2017-Dec-19 01:30N 51°05' E 003°44'0 0.0
2017-Dec-19 01:01N 51°05' E 003°44'  
Track history (hours):
 
Tides and Currents Weather Stations Pressure Air Temp Water Temp Dewpoint Dewpoint Depression Visibility Wind Speed Wind Dir Waves Ship Positions

Melina

Last reported at 2017-Dec-29 00:41 UTC. Time now 2018-Feb-17 23:19 UTC.
Position N 28°10' W 016°10'.
Warning: this ship's position is 50 days out of date.

Length 170 m; draft 9.8 m.

Type: Cargo ship. MMSI: 636017902.

Date/timePositionNaut miles runAvg speedWind from/ knotsBaromVisibWave heightAir tempDewpointWater temp
2017-Dec-29 00:41N 28°10' W 016°10'212.5
2017-Dec-29 00:30N 28°12' W 016°09'812.6
2017-Dec-28 23:54N 28°18' W 016°03'512.3
2017-Dec-28 23:30N 28°22' W 015°60'611.8
2017-Dec-28 23:00N 28°26' W 015°55'611.9
2017-Dec-28 22:30N 28°31' W 015°51'612.1
2017-Dec-28 22:00N 28°36' W 015°47'612.1
2017-Dec-28 21:30N 28°41' W 015°44'612.0
2017-Dec-28 21:00N 28°47' W 015°42'611.9
2017-Dec-28 20:30N 28°53' W 015°39'612.1
2017-Dec-28 20:00N 28°58' W 015°37'912.1
2017-Dec-28 19:17N 29°07' W 015°34'412.1
2017-Dec-28 18:59N 29°10' W 015°33'4212.0
2017-Dec-28 15:30N 29°50' W 015°18'  
2017-Dec-24 08:20N 48°24' W 006°11'411.5
2017-Dec-24 07:59N 48°27' W 006°08'811.4
2017-Dec-24 07:15N 48°35' W 006°02'1810.9
2017-Dec-24 05:39N 48°50' W 005°50'210.9
2017-Dec-24 05:26N 48°52' W 005°48'510.6
2017-Dec-24 04:59N 48°56' W 005°43'611.1
2017-Dec-24 04:28N 48°59' W 005°35'811.5
2017-Dec-24 03:49N 49°02' W 005°25'411.8
2017-Dec-24 03:28N 49°05' W 005°20'712.1
2017-Dec-24 02:51N 49°09' W 005°11'712.5
2017-Dec-24 02:18N 49°12' W 005°02'612.7
2017-Dec-24 01:52N 49°15' W 004°54'612.8
2017-Dec-24 01:25N 49°18' W 004°47'612.8
2017-Dec-24 00:56N 49°21' W 004°38'712.7
2017-Dec-24 00:23N 49°24' W 004°29'2612.0
2017-Dec-23 22:12N 49°37' W 003°54'211.3
2017-Dec-23 22:00N 49°38' W 003°51'611.0
2017-Dec-23 21:29N 49°41' W 003°43'510.9
2017-Dec-23 21:00N 49°44' W 003°36'510.8
2017-Dec-23 20:30N 49°47' W 003°29'510.9
2017-Dec-23 20:00N 49°50' W 003°22'611.1
2017-Dec-23 19:30N 49°52' W 003°14'611.5
2017-Dec-23 19:00N 49°55' W 003°07'611.9
2017-Dec-23 18:30N 49°58' W 002°59'612.5
2017-Dec-23 18:00N 50°00' W 002°49'713.2
2017-Dec-23 17:30N 50°02' W 002°40'1114.1
2017-Dec-23 16:44N 50°05' W 002°23'1214.4
2017-Dec-23 15:54N 50°08' W 002°05'914.0
2017-Dec-23 15:16N 50°11' W 001°52'1213.0
2017-Dec-23 14:20N 50°14' W 001°33'512.1
2017-Dec-23 13:54N 50°15' W 001°25'511.4
2017-Dec-23 13:30N 50°16' W 001°19'510.7
2017-Dec-23 12:59N 50°17' W 001°10'510.1
2017-Dec-23 12:29N 50°19' W 001°03'6 9.6
2017-Dec-23 11:55N 50°20' W 000°54'20 9.4
2017-Dec-23 09:51N 50°25' W 000°25'410.5
2017-Dec-23 09:31N 50°26' W 000°19'611.1
2017-Dec-23 09:01N 50°28' W 000°11'611.7
2017-Dec-23 08:30N 50°29' W 000°02'612.4
2017-Dec-23 08:01N 50°31' E 000°07'612.8
2017-Dec-23 07:30N 50°33' E 000°17'713.2
2017-Dec-23 07:01N 50°34' E 000°27'713.1
2017-Dec-23 06:31N 50°37' E 000°36'713.0
2017-Dec-23 06:01N 50°41' E 000°45'612.7
2017-Dec-23 05:30N 50°44' E 000°53'612.3
2017-Dec-23 05:01N 50°47' E 001°02'612.0
2017-Dec-23 04:29N 50°51' E 001°10'811.3
2017-Dec-23 03:49N 50°56' E 001°19'310.6
2017-Dec-23 03:30N 50°58' E 001°22'510.3
2017-Dec-23 03:01N 51°02' E 001°27'510.6
2017-Dec-23 02:31N 51°06' E 001°33'510.6
2017-Dec-23 02:01N 51°10' E 001°40'611.1
2017-Dec-23 01:31N 51°14' E 001°46'612.0
2017-Dec-23 01:01N 51°19' E 001°51'612.7
2017-Dec-23 00:31N 51°24' E 001°57'611.7
2017-Dec-23 00:00N 51°23' E 002°06'612.6
2017-Dec-22 23:30N 51°21' E 002°16'713.6
2017-Dec-22 23:00N 51°22' E 002°26'713.4
2017-Dec-22 22:30N 51°23' E 002°37'612.3
2017-Dec-22 22:00N 51°22' E 002°47'613.3
2017-Dec-22 21:30N 51°23' E 002°57'612.6
2017-Dec-22 21:00N 51°24' E 003°07'714.0
2017-Dec-22 20:30N 51°25' E 003°18'714.2
2017-Dec-22 20:00N 51°25' E 003°30'510.5
2017-Dec-22 19:30N 51°26' E 003°38'510.6
2017-Dec-22 19:01N 51°23' E 003°44'4 8.7
2017-Dec-22 18:30N 51°20' E 003°49'0 0.4
2017-Dec-22 18:01N 51°20' E 003°49'1 2.1
2017-Dec-22 17:31N 51°19' E 003°50'2 4.4
2017-Dec-22 17:00N 51°16' E 003°50'3 6.3
2017-Dec-22 16:30N 51°14' E 003°48'3 6.4
2017-Dec-22 16:00N 51°10' E 003°48'3 7.0
2017-Dec-22 15:30N 51°07' E 003°45'2 4.0
2017-Dec-22 15:00N 51°05' E 003°44'0 0.0
2017-Dec-22 14:30N 51°05' E 003°44'0 0.0
2017-Dec-22 14:00N 51°05' E 003°44'0 0.0
2017-Dec-22 13:30N 51°05' E 003°44'0 0.0
2017-Dec-22 13:00N 51°05' E 003°44'0 0.0
2017-Dec-22 12:30N 51°05' E 003°44'0 0.0
2017-Dec-22 12:00N 51°05' E 003°44'0 0.0
2017-Dec-22 11:30N 51°05' E 003°44'0 0.0
2017-Dec-22 11:00N 51°05' E 003°44'0 0.0
2017-Dec-22 10:30N 51°05' E 003°44'0 0.0
2017-Dec-22 10:00N 51°05' E 003°44'0 0.0
2017-Dec-22 09:30N 51°05' E 003°44'0 0.0
2017-Dec-22 09:01N 51°05' E 003°44'0 0.0
2017-Dec-22 08:31N 51°05' E 003°44'0 0.0
2017-Dec-22 08:00N 51°05' E 003°44'0 0.0
2017-Dec-22 07:31N 51°05' E 003°44'0 0.0
2017-Dec-22 07:00N 51°05' E 003°44'0 0.0
2017-Dec-22 06:31N 51°05' E 003°44'0 0.0
2017-Dec-22 06:00N 51°05' E 003°44'0 0.0
2017-Dec-22 05:31N 51°05' E 003°44'0 0.0
2017-Dec-22 05:00N 51°05' E 003°44'0 0.0
2017-Dec-22 04:30N 51°05' E 003°44'0 0.0
2017-Dec-22 04:00N 51°05' E 003°44'0 0.0
2017-Dec-22 03:30N 51°05' E 003°44'0 0.0
2017-Dec-22 03:01N 51°05' E 003°44'0 0.0
2017-Dec-22 02:30N 51°05' E 003°44'0 0.0
2017-Dec-22 02:00N 51°05' E 003°44'0 0.0
2017-Dec-22 01:30N 51°05' E 003°44'0 0.0
2017-Dec-22 01:01N 51°05' E 003°44'0 0.0
2017-Dec-22 00:30N 51°05' E 003°44'0 0.0
2017-Dec-22 00:00N 51°05' E 003°44'0 0.0
2017-Dec-21 23:30N 51°05' E 003°44'0 0.0
2017-Dec-21 23:01N 51°05' E 003°44'0 0.0
2017-Dec-21 22:30N 51°05' E 003°44'0 0.0
2017-Dec-21 22:01N 51°05' E 003°44'0 0.0
2017-Dec-21 21:30N 51°05' E 003°44'0 0.0
2017-Dec-21 21:00N 51°05' E 003°44'0 0.0
2017-Dec-21 20:31N 51°05' E 003°44'0 0.0
2017-Dec-21 20:00N 51°05' E 003°44'0 0.0
2017-Dec-21 19:30N 51°05' E 003°44'0 0.0
2017-Dec-21 19:00N 51°05' E 003°44'0 0.0
2017-Dec-21 18:30N 51°05' E 003°44'0 0.0
2017-Dec-21 18:00N 51°05' E 003°44'0 0.0
2017-Dec-21 17:30N 51°05' E 003°44'0 0.0
2017-Dec-21 17:00N 51°05' E 003°44'0 0.0
2017-Dec-21 16:30N 51°05' E 003°44'0 0.0
2017-Dec-21 16:00N 51°05' E 003°44'0 0.0
2017-Dec-21 15:30N 51°05' E 003°44'0 0.0
2017-Dec-21 15:00N 51°05' E 003°44'0 0.0
2017-Dec-21 14:30N 51°05' E 003°44'0 0.0
2017-Dec-21 14:00N 51°05' E 003°44'0 0.0
2017-Dec-21 13:30N 51°05' E 003°44'0 0.0
2017-Dec-21 13:00N 51°05' E 003°44'0 0.0
2017-Dec-21 12:30N 51°05' E 003°44'0 0.0
2017-Dec-21 12:00N 51°05' E 003°44'0 0.0
2017-Dec-21 11:31N 51°05' E 003°44'0 0.0
2017-Dec-21 11:00N 51°05' E 003°44'0 0.0
2017-Dec-21 10:30N 51°05' E 003°44'0 0.0
2017-Dec-21 10:01N 51°05' E 003°44'0 0.0
2017-Dec-21 09:30N 51°05' E 003°44'0 0.0
2017-Dec-21 09:00N 51°05' E 003°44'0 0.0
2017-Dec-21 08:30N 51°05' E 003°44'0 0.0
2017-Dec-21 08:00N 51°05' E 003°44'0 0.0
2017-Dec-21 07:30N 51°05' E 003°44'0 0.0
2017-Dec-21 07:00N 51°05' E 003°44'0 0.0
2017-Dec-21 06:30N 51°05' E 003°44'0 0.0
2017-Dec-21 06:01N 51°05' E 003°44'0 0.0
2017-Dec-21 05:30N 51°05' E 003°44'0 0.0
2017-Dec-21 05:00N 51°05' E 003°44'0 0.0
2017-Dec-21 04:29N 51°05' E 003°44'0 0.0
2017-Dec-21 04:00N 51°05' E 003°44'0 0.0
2017-Dec-21 03:31N 51°05' E 003°44'0 0.0
2017-Dec-21 03:00N 51°05' E 003°44'0 0.0
2017-Dec-21 02:31N 51°05' E 003°44'0 0.0
2017-Dec-21 02:00N 51°05' E 003°44'0 0.0
2017-Dec-21 01:30N 51°05' E 003°44'0 0.0
2017-Dec-21 01:00N 51°05' E 003°44'0 0.0
2017-Dec-21 00:30N 51°05' E 003°44'0 0.0
2017-Dec-21 00:00N 51°05' E 003°44'0 0.0
2017-Dec-20 23:30N 51°05' E 003°44'0 0.0
2017-Dec-20 23:00N 51°05' E 003°44'0 0.0
2017-Dec-20 22:31N 51°05' E 003°44'0 0.0
2017-Dec-20 22:00N 51°05' E 003°44'0 0.0
2017-Dec-20 21:31N 51°05' E 003°44'0 0.0
2017-Dec-20 21:01N 51°05' E 003°44'0 0.0
2017-Dec-20 20:31N 51°05' E 003°44'0 0.0
2017-Dec-20 20:00N 51°05' E 003°44'0 0.0
2017-Dec-20 19:30N 51°05' E 003°44'0 0.0
2017-Dec-20 19:00N 51°05' E 003°44'0 0.0
2017-Dec-20 18:30N 51°05' E 003°44'0 0.0
2017-Dec-20 18:00N 51°05' E 003°44'0 0.0
2017-Dec-20 17:30N 51°05' E 003°44'0 0.0
2017-Dec-20 17:00N 51°05' E 003°44'0 0.0
2017-Dec-20 16:30N 51°05' E 003°44'0 0.0
2017-Dec-20 16:01N 51°05' E 003°44'0 0.0
2017-Dec-20 15:30N 51°05' E 003°44'0 0.0
2017-Dec-20 15:00N 51°05' E 003°44'0 0.0
2017-Dec-20 14:30N 51°05' E 003°44'0 0.0
2017-Dec-20 14:01N 51°05' E 003°44'0 0.0
2017-Dec-20 13:31N 51°05' E 003°44'0 0.0
2017-Dec-20 13:01N 51°05' E 003°44'0 0.0
2017-Dec-20 12:30N 51°05' E 003°44'0 0.0
2017-Dec-20 12:01N 51°05' E 003°44'0 0.0
2017-Dec-20 11:30N 51°05' E 003°44'0 0.0
2017-Dec-20 11:00N 51°05' E 003°44'0 0.0
2017-Dec-20 10:30N 51°05' E 003°44'0 0.0
2017-Dec-20 10:00N 51°05' E 003°44'0 0.0
2017-Dec-20 09:30N 51°05' E 003°44'0 0.0
2017-Dec-20 09:00N 51°05' E 003°44'0 0.0
2017-Dec-20 08:31N 51°05' E 003°44'0 0.0
2017-Dec-20 08:00N 51°05' E 003°44'0 0.0
2017-Dec-20 07:31N 51°05' E 003°44'0 0.0
2017-Dec-20 07:00N 51°05' E 003°44'0 0.0
2017-Dec-20 06:30N 51°05' E 003°44'0 0.0
2017-Dec-20 06:00N 51°05' E 003°44'0 0.0
2017-Dec-20 05:30N 51°05' E 003°44'0 0.0
2017-Dec-20 05:01N 51°05' E 003°44'0 0.0
2017-Dec-20 04:30N 51°05' E 003°44'0 0.0
2017-Dec-20 04:00N 51°05' E 003°44'0 0.0
2017-Dec-20 03:30N 51°05' E 003°44'0 0.0
2017-Dec-20 03:00N 51°05' E 003°44'0 0.0
2017-Dec-20 02:31N 51°05' E 003°44'0 0.0
2017-Dec-20 02:00N 51°05' E 003°44'0 0.0
2017-Dec-20 01:30N 51°05' E 003°44'0 0.0
2017-Dec-20 01:01N 51°05' E 003°44'0 0.0
2017-Dec-20 00:30N 51°05' E 003°44'0 0.0
2017-Dec-20 00:00N 51°05' E 003°44'0 0.0
2017-Dec-19 23:30N 51°05' E 003°44'0 0.0
2017-Dec-19 22:59N 51°05' E 003°44'0 0.0
2017-Dec-19 22:30N 51°05' E 003°44'0 0.0
2017-Dec-19 22:00N 51°05' E 003°44'0 0.0
2017-Dec-19 21:30N 51°05' E 003°44'0 0.0
2017-Dec-19 21:00N 51°05' E 003°44'0 0.0
2017-Dec-19 20:30N 51°05' E 003°44'0 0.0
2017-Dec-19 20:01N 51°05' E 003°44'0 0.0
2017-Dec-19 19:31N 51°05' E 003°44'0 0.0
2017-Dec-19 19:00N 51°05' E 003°44'0 0.0
2017-Dec-19 18:30N 51°05' E 003°44'0 0.0
2017-Dec-19 18:00N 51°05' E 003°44'0 0.0
2017-Dec-19 17:30N 51°05' E 003°44'0 0.0
2017-Dec-19 17:00N 51°05' E 003°44'0 0.0
2017-Dec-19 16:30N 51°05' E 003°44'0 0.0
2017-Dec-19 16:01N 51°05' E 003°44'0 0.0
2017-Dec-19 15:31N 51°05' E 003°44'0 0.0
2017-Dec-19 15:00N 51°05' E 003°44'0 0.0
2017-Dec-19 14:30N 51°05' E 003°44'0 0.0
2017-Dec-19 14:00N 51°05' E 003°44'0 0.0
2017-Dec-19 13:30N 51°05' E 003°44'0 0.0
2017-Dec-19 13:00N 51°05' E 003°44'0 0.0
2017-Dec-19 12:30N 51°05' E 003°44'0 0.0
2017-Dec-19 12:00N 51°05' E 003°44'0 0.0
2017-Dec-19 11:30N 51°05' E 003°44'0 0.0
2017-Dec-19 11:01N 51°05' E 003°44'0 0.0
2017-Dec-19 10:30N 51°05' E 003°44'0 0.0
2017-Dec-19 10:00N 51°05' E 003°44'0 0.0
2017-Dec-19 09:31N 51°05' E 003°44'0 0.0
2017-Dec-19 09:00N 51°05' E 003°44'0 0.0
2017-Dec-19 08:30N 51°05' E 003°44'0 0.0
2017-Dec-19 08:01N 51°05' E 003°44'0 0.0
2017-Dec-19 07:31N 51°05' E 003°44'0 0.0
2017-Dec-19 07:00N 51°05' E 003°44'0 0.0
2017-Dec-19 06:30N 51°05' E 003°44'0 0.0
2017-Dec-19 06:01N 51°05' E 003°44'0 0.0
2017-Dec-19 05:31N 51°05' E 003°44'0 0.0
2017-Dec-19 05:00N 51°05' E 003°44'0 0.0
2017-Dec-19 04:30N 51°05' E 003°44'0 0.0
2017-Dec-19 04:01N 51°05' E 003°44'0 0.0
2017-Dec-19 03:31N 51°05' E 003°44'0 0.0
2017-Dec-19 03:01N 51°05' E 003°44'0 0.0
2017-Dec-19 02:30N 51°05' E 003°44'0 0.0
2017-Dec-19 02:01N 51°05' E 003°44'0 0.0
2017-Dec-19 01:30N 51°05' E 003°44'0 0.0
2017-Dec-19 01:01N 51°05' E 003°44'  

Dump ship's entire track history